This is the latest recevied weather packets stored in our database for station/object OK1FCB-1. If no packets are shown the sender has not sent any weather packets the latest 10 day(s).
| Time | Temp. | Humidity | Pressure | Rain* | Wind** | Luminosity | Snow |
|---|---|---|---|---|---|---|---|
| 1778095014 | 12.22° C | 78% | 1008.7 hPa | - | - | - | - |
| 1778095008 | 12.22° C | 78% | 1008.7 hPa | - | - | - | - |
| 1778094111 | 12.22° C | 78% | 1008.6 hPa | - | - | - | - |
| 1778093218 | 12.22° C | 77% | 1008.4 hPa | - | - | - | - |
| 1778093213 | 12.22° C | 77% | 1008.4 hPa | - | - | - | - |
| 1778091424 | 12.78° C | 76% | 1009.5 hPa | - | - | - | - |
| 1778091418 | 12.78° C | 76% | 1009.5 hPa | - | - | - | - |
| 1778090520 | 12.78° C | 76% | 1009.3 hPa | - | - | - | - |
| 1778086931 | 15° C | 68% | 1008.2 hPa | - | - | - | - |
| 1778081542 | 16.11° C | 63% | 1008.7 hPa | - | - | - | - |
| 1778080651 | 16.67° C | 62% | 1008.8 hPa | - | - | - | - |
| 1778080645 | 16.67° C | 62% | 1008.8 hPa | - | - | - | - |
| 1778079756 | 18.33° C | 58% | 1009.6 hPa | - | - | - | - |
| 1778079750 | 18.33° C | 58% | 1009.6 hPa | - | - | - | - |
| 1778072591 | 30° C | 31% | 1009.6 hPa | - | - | - | - |
| 1778071692 | 31.67° C | 29% | 1009.9 hPa | - | - | - | - |
| 1778070793 | 30.56° C | 32% | 1010.1 hPa | - | - | - | - |
| 1778068101 | 28.33° C | 35% | 1010.4 hPa | - | - | - | - |
| 1778068095 | 28.33° C | 35% | 1010.4 hPa | - | - | - | - |
| 1778067195 | 26.67° C | 35% | 1010.7 hPa | - | - | - | - |
| 1778064506 | 25.56° C | 37% | 1010.8 hPa | - | - | - | - |
| 1778064500 | 25.56° C | 37% | 1010.8 hPa | - | - | - | - |
| 1778063606 | 25° C | 39% | 1010.9 hPa | - | - | - | - |
| 1778061801 | 23.89° C | 40% | 1011.1 hPa | - | - | - | - |
| 1778060002 | 22.78° C | 44% | 1011 hPa | - | - | - | - |
* Rain since midnight (hover to see other rain measurements)
** Current wind speed in m/s (hover to see current wind gust speed)